Time;durP1;ratioP1;P1;durP2;ratioP2;P2;SDS_P1;SDS_P2;PMS_P1;PMS_P2;Temp;Humidity;BMP_temperature;BMP_pressure;BME280_temperature;BME280_humidity;BME280_pressure;Samples;Min_cycle;Max_cycle;Signal;HPM_P1;HPM_P2
2023/10/19 00:00:43;;;;;;;12.43;11.13;;;14.00;99.90;;;;;;4985359;28;20182;-84
2023/10/19 00:03:09;;;;;;;12.40;11.30;;;14.90;99.90;;;;;;4989129;28;20237;-85
2023/10/19 00:05:35;;;;;;;12.33;11.20;;;15.30;99.90;;;;;;4985989;28;20187;-85
2023/10/19 00:08:21;;;;;;;13.80;12.50;;;14.50;99.90;;;;;;4989100;28;20182;-85
2023/10/19 00:13:35;;;;;;;13.85;12.30;;;15.00;99.90;;;;;;4994095;28;20204;-85
2023/10/19 00:16:07;;;;;;;13.60;12.20;;;14.00;99.90;;;;;;4981374;28;20180;-85
2023/10/19 00:18:34;;;;;;;12.18;10.98;;;15.10;99.90;;;;;;4986204;28;20184;-85
2023/10/19 00:23:49;;;;;;;12.52;11.00;;;14.80;99.90;;;;;;4983489;28;20754;-85
2023/10/19 00:26:17;;;;;;;11.15;10.13;;;14.60;99.90;;;;;;4986779;28;20207;-85
2023/10/19 00:28:45;;;;;;;10.45;9.40;;;15.00;99.90;;;;;;4999555;28;20192;-85
2023/10/19 00:31:11;;;;;;;12.15;10.75;;;14.20;99.90;;;;;;4997577;28;20208;-86
2023/10/19 00:33:40;;;;;;;10.35;9.40;;;15.30;99.90;;;;;;4982411;28;20207;-86
2023/10/19 00:36:13;;;;;;;10.45;9.45;;;15.00;99.90;;;;;;4981847;28;20184;-86
2023/10/19 00:38:39;;;;;;;10.10;8.98;;;15.60;99.90;;;;;;4984308;28;20308;-86
2023/10/19 00:43:46;;;;;;;8.68;7.78;;;15.90;99.90;;;;;;4982825;28;20629;-86
2023/10/19 00:49:09;;;;;;;10.75;9.70;;;15.90;99.90;;;;;;4984470;28;20192;-86
2023/10/19 00:52:19;;;;;;;9.77;8.77;;;15.40;99.90;;;;;;4985173;28;20222;-86
2023/10/19 00:57:35;;;;;;;9.48;8.60;;;15.70;99.90;;;;;;4986077;28;20176;-86
2023/10/19 01:00:11;;;;;;;8.93;8.10;;;15.30;99.90;;;;;;4981633;28;20190;-86
2023/10/19 01:02:43;;;;;;;8.50;7.70;;;13.90;99.90;;;;;;4984767;28;20234;-86
2023/10/19 01:05:12;;;;;;;7.47;6.78;;;15.50;99.90;;;;;;4985658;28;20190;-86
2023/10/19 01:07:39;;;;;;;7.10;6.40;;;15.30;99.90;;;;;;4980706;28;20206;-86
2023/10/19 01:10:12;;;;;;;7.55;6.85;;;16.00;99.90;;;;;;4985231;28;20223;-85
2023/10/19 01:12:41;;;;;;;7.57;6.65;;;14.00;99.90;;;;;;4987035;28;20203;-86
2023/10/19 01:15:23;;;;;;;7.20;6.50;;;14.50;99.90;;;;;;4984445;28;20184;-86
2023/10/19 01:17:56;;;;;;;6.50;5.90;;;15.40;99.90;;;;;;4979466;28;20679;-85
2023/10/19 01:28:28;;;;;;;6.60;6.05;;;15.30;99.90;;;;;;4980480;28;20187;-86
2023/10/19 01:30:54;;;;;;;6.82;6.13;;;16.30;99.90;;;;;;4981276;28;20212;-85
2023/10/19 01:33:22;;;;;;;5.88;5.32;;;16.30;99.90;;;;;;4982177;28;20215;-85
2023/10/19 01:38:33;;;;;;;6.25;5.75;;;16.50;99.90;;;;;;4985610;28;20202;-85
2023/10/19 01:41:07;;;;;;;6.13;5.60;;;14.30;99.90;;;;;;4983259;28;20210;-85
2023/10/19 01:43:33;;;;;;;6.70;6.10;;;16.40;99.90;;;;;;4982050;28;20220;-85
2023/10/19 01:46:11;;;;;;;6.63;5.50;;;15.80;99.90;;;;;;4984306;28;20187;-86
2023/10/19 01:48:38;;;;;;;6.43;5.18;;;15.20;99.90;;;;;;4981539;28;20196;-86
2023/10/19 01:51:05;;;;;;;6.80;6.20;;;15.40;99.90;;;;;;4983797;28;20211;-85
2023/10/19 01:53:39;;;;;;;6.85;5.65;;;16.20;99.90;;;;;;4981942;28;20254;-86
2023/10/19 01:56:09;;;;;;;5.90;5.40;;;16.20;99.90;;;;;;4977103;28;20278;-85
2023/10/19 01:58:39;;;;;;;5.88;5.20;;;16.40;99.90;;;;;;4981034;28;20184;-85
2023/10/19 02:03:42;;;;;;;6.55;5.95;;;16.50;99.90;;;;;;4986404;28;20219;-85
2023/10/19 02:06:26;;;;;;;6.45;5.75;;;16.70;99.90;;;;;;4980221;28;20192;-85
2023/10/19 02:09:00;;;;;;;6.20;5.60;;;16.40;99.90;;;;;;4978434;28;20253;-85
2023/10/19 02:11:27;;;;;;;6.93;6.32;;;14.20;99.90;;;;;;4982383;28;20225;-85
2023/10/19 02:13:59;;;;;;;5.70;5.20;;;16.20;99.90;;;;;;4984000;28;20213;-87
2023/10/19 02:16:26;;;;;;;7.35;6.30;;;15.90;99.90;;;;;;4984668;28;20194;-87
2023/10/19 02:18:53;;;;;;;6.72;6.13;;;14.30;99.90;;;;;;4982089;28;20180;-87
2023/10/19 02:21:22;;;;;;;7.28;6.60;;;16.20;99.90;;;;;;4985244;28;20756;-87
2023/10/19 02:23:51;;;;;;;8.20;6.60;;;16.20;99.90;;;;;;4988045;28;20223;-86
2023/10/19 02:26:19;;;;;;;6.93;6.22;;;16.10;99.90;;;;;;4981823;28;20187;-85
2023/10/19 02:28:46;;;;;;;8.45;6.28;;;16.10;99.90;;;;;;4978751;28;20278;-85
2023/10/19 02:31:15;;;;;;;9.90;6.85;;;16.60;99.90;;;;;;4982695;28;20272;-85
2023/10/19 02:33:45;;;;;;;10.02;7.20;;;15.20;99.90;;;;;;4987000;28;20710;-86
2023/10/19 02:36:12;;;;;;;8.73;7.93;;;16.00;99.90;;;;;;4982870;28;20180;-86
2023/10/19 02:38:43;;;;;;;8.48;7.68;;;14.00;99.90;;;;;;4991908;28;20213;-87
2023/10/19 02:41:09;;;;;;;10.27;7.60;;;16.10;99.90;;;;;;4988633;28;20263;-85
2023/10/19 02:43:36;;;;;;;9.10;8.30;;;15.70;99.90;;;;;;4989994;28;20420;-85
2023/10/19 02:46:03;;;;;;;7.05;6.45;;;13.90;99.90;;;;;;4984761;28;20188;-85
2023/10/19 02:48:29;;;;;;;8.20;7.35;;;14.70;99.90;;;;;;4991744;28;20702;-85
2023/10/19 02:50:55;;;;;;;7.73;6.93;;;14.20;99.90;;;;;;4987718;28;20214;-84
2023/10/19 02:53:21;;;;;;;8.23;7.30;;;15.20;99.90;;;;;;4990240;28;20203;-85
2023/10/19 02:55:46;;;;;;;6.85;6.25;;;14.70;99.90;;;;;;4988074;28;20254;-85
2023/10/19 02:58:13;;;;;;;7.90;7.20;;;16.10;99.90;;;;;;4986657;28;20649;-85
2023/10/19 03:00:39;;;;;;;7.88;6.72;;;14.10;99.90;;;;;;4986511;28;20215;-85
2023/10/19 03:03:06;;;;;;;7.43;6.82;;;14.60;99.90;;;;;;4989101;28;20207;-85
2023/10/19 03:05:34;;;;;;;8.98;7.50;;;16.00;99.90;;;;;;5000010;28;20191;-85
2023/10/19 03:08:05;;;;;;;8.02;7.25;;;14.00;99.90;;;;;;4997010;28;20195;-84
2023/10/19 03:10:41;;;;;;;7.82;7.03;;;14.80;99.90;;;;;;4984099;28;20238;-85
2023/10/19 03:13:08;;;;;;;7.68;6.90;;;15.10;99.90;;;;;;4989928;28;20202;-85
2023/10/19 03:15:33;;;;;;;9.02;8.15;;;15.30;99.90;;;;;;4987205;28;20274;-85
2023/10/19 03:18:01;;;;;;;9.87;9.00;;;14.20;99.90;;;;;;4985249;28;20287;-85
2023/10/19 03:20:33;;;;;;;7.95;7.22;;;13.10;99.90;;;;;;4991059;28;20666;-85
2023/10/19 03:23:02;;;;;;;9.00;8.10;;;14.30;99.90;;;;;;4990562;28;20214;-84
2023/10/19 03:28:12;;;;;;;9.48;7.88;;;15.50;99.90;;;;;;4985667;28;20255;-86
2023/10/19 03:30:41;;;;;;;8.27;7.50;;;13.90;99.90;;;;;;4982949;28;20636;-87
2023/10/19 03:33:17;;;;;;;8.75;7.95;;;14.20;99.90;;;;;;4986608;28;20472;-87
2023/10/19 03:35:51;;;;;;;9.55;7.70;;;15.10;99.90;;;;;;5000108;28;21631;-87
2023/10/19 03:38:19;;;;;;;7.80;7.10;;;13.30;99.90;;;;;;5011153;28;20238;-87
2023/10/19 03:40:59;;;;;;;9.48;8.57;;;15.40;99.90;;;;;;4996184;28;20182;-87
2023/10/19 03:43:28;;;;;;;8.15;7.35;;;15.20;99.90;;;;;;4993795;28;20203;-87
2023/10/19 03:45:54;;;;;;;7.78;7.10;;;15.10;99.90;;;;;;4986745;28;20178;-87
2023/10/19 03:48:36;;;;;;;8.38;7.35;;;14.20;99.90;;;;;;4989905;28;20665;-87
2023/10/19 03:51:02;;;;;;;8.60;7.80;;;12.50;99.90;;;;;;4985764;28;20261;-87
2023/10/19 03:53:28;;;;;;;9.20;8.30;;;13.90;99.90;;;;;;4988529;28;20200;-87
2023/10/19 03:55:54;;;;;;;8.23;7.43;;;14.70;99.90;;;;;;4999548;28;20178;-86
2023/10/19 03:58:20;;;;;;;9.32;7.82;;;15.40;99.90;;;;;;4988657;28;20215;-87
2023/10/19 04:01:07;;;;;;;7.63;6.97;;;14.50;99.90;;;;;;4990359;28;20656;-87
2023/10/19 04:03:36;;;;;;;7.95;6.80;;;13.80;99.90;;;;;;4992789;28;20581;-87
2023/10/19 04:06:04;;;;;;;8.85;7.13;;;12.80;99.90;;;;;;4988948;28;20222;-87
2023/10/19 04:08:37;;;;;;;11.48;7.88;;;12.80;99.90;;;;;;4985592;28;20188;-87
2023/10/19 04:11:08;;;;;;;9.90;8.90;;;14.60;99.90;;;;;;4992746;28;20238;-87
2023/10/19 04:13:36;;;;;;;7.88;7.07;;;13.60;99.90;;;;;;4981658;28;20216;-86
2023/10/19 04:16:02;;;;;;;7.63;6.68;;;14.60;99.90;;;;;;4979895;28;20523;-86
2023/10/19 04:18:28;;;;;;;7.93;5.63;;;13.00;99.90;;;;;;4982607;28;20699;-86
2023/10/19 04:23:26;;;;;;;7.50;6.80;;;14.50;99.90;;;;;;4981742;28;20824;-86
2023/10/19 04:26:03;;;;;;;8.13;7.32;;;13.10;99.90;;;;;;4982315;28;20644;-86
2023/10/19 04:28:38;;;;;;;6.32;5.72;;;13.10;99.90;;;;;;4984180;28;20194;-86
2023/10/19 04:31:06;;;;;;;6.72;6.10;;;13.30;99.90;;;;;;4983527;28;20246;-87
2023/10/19 04:33:32;;;;;;;6.45;5.85;;;12.60;99.90;;;;;;4983828;28;20199;-87
2023/10/19 04:36:00;;;;;;;6.70;6.10;;;14.60;99.90;;;;;;4983315;28;20235;-87
2023/10/19 04:38:26;;;;;;;7.75;6.18;;;15.00;99.90;;;;;;4984118;28;20723;-87
2023/10/19 04:40:52;;;;;;;7.32;6.60;;;14.40;99.90;;;;;;4983721;28;20577;-87
2023/10/19 04:43:17;;;;;;;6.40;5.80;;;15.30;99.90;;;;;;4983858;28;20214;-86
2023/10/19 04:45:44;;;;;;;6.83;6.10;;;15.60;99.90;;;;;;4984376;28;20230;-86
2023/10/19 04:48:10;;;;;;;7.10;6.28;;;14.90;99.90;;;;;;4983557;28;20184;-88
2023/10/19 04:50:36;;;;;;;7.27;6.57;;;15.00;99.90;;;;;;4987084;28;20278;-88
2023/10/19 04:53:02;;;;;;;8.02;5.40;;;13.20;99.90;;;;;;4981853;28;20995;-87
2023/10/19 04:55:30;;;;;;;6.10;5.50;;;13.50;99.90;;;;;;4983574;28;20192;-87
2023/10/19 04:57:56;;;;;;;6.55;5.63;;;14.90;99.90;;;;;;4981502;28;20444;-86
2023/10/19 05:00:24;;;;;;;6.35;5.75;;;15.90;99.90;;;;;;4986532;28;20202;-88
2023/10/19 05:02:51;;;;;;;7.60;6.32;;;13.40;99.90;;;;;;4983283;28;20211;-88
2023/10/19 05:05:18;;;;;;;6.70;6.10;;;15.40;99.90;;;;;;4984410;28;20262;-87
2023/10/19 05:07:49;;;;;;;7.90;7.10;;;13.30;99.90;;;;;;4987390;28;20245;-86
2023/10/19 05:10:16;;;;;;;7.95;7.25;;;14.60;99.90;;;;;;4986112;28;20211;-88
2023/10/19 05:12:42;;;;;;;6.50;5.90;;;13.40;99.90;;;;;;4983968;28;20647;-87
2023/10/19 05:15:08;;;;;;;6.83;5.80;;;14.90;99.90;;;;;;4981211;28;20219;-86
2023/10/19 05:17:36;;;;;;;6.80;5.60;;;13.10;99.90;;;;;;4986885;28;20192;-86
2023/10/19 05:20:05;;;;;;;6.25;5.65;;;14.90;99.90;;;;;;4982416;28;20454;-87
2023/10/19 05:22:32;;;;;;;6.32;5.82;;;13.30;99.90;;;;;;4983700;28;20336;-86
2023/10/19 05:24:58;;;;;;;7.25;6.55;;;13.40;99.90;;;;;;4990170;28;20578;-86
2023/10/19 05:27:23;;;;;;;5.60;5.10;;;14.40;99.90;;;;;;4989808;28;20191;-86
2023/10/19 05:29:49;;;;;;;6.53;5.80;;;14.40;99.90;;;;;;4981819;28;20743;-86
2023/10/19 05:32:14;;;;;;;7.30;6.20;;;15.50;99.90;;;;;;4980687;28;20172;-88
2023/10/19 05:34:40;;;;;;;7.90;6.60;;;14.00;99.90;;;;;;4985662;28;20216;-87
2023/10/19 05:37:06;;;;;;;8.87;5.90;;;14.20;99.90;;;;;;4987920;28;20195;-88
2023/10/19 05:39:33;;;;;;;8.00;7.20;;;15.30;99.90;;;;;;4987001;28;20176;-86
2023/10/19 05:42:00;;;;;;;7.38;6.13;;;14.60;99.90;;;;;;4980478;28;20653;-86
2023/10/19 05:44:30;;;;;;;8.55;6.95;;;12.10;99.90;;;;;;4980383;28;20249;-87
2023/10/19 05:46:56;;;;;;;7.60;6.80;;;13.30;99.90;;;;;;4985078;28;20179;-87
2023/10/19 05:49:23;;;;;;;7.18;6.18;;;13.80;99.90;;;;;;4982953;28;20195;-87
2023/10/19 05:51:49;;;;;;;6.80;6.20;;;13.90;99.90;;;;;;4985486;28;20310;-88
2023/10/19 05:54:16;;;;;;;7.23;6.63;;;15.70;99.90;;;;;;4996024;28;20660;-87
2023/10/19 05:56:42;;;;;;;7.25;6.55;;;14.70;99.90;;;;;;4986283;28;20443;-87
2023/10/19 05:59:10;;;;;;;7.00;6.30;;;13.90;99.90;;;;;;4986119;28;20184;-87
2023/10/19 06:01:37;;;;;;;8.60;6.10;;;14.70;99.90;;;;;;4981579;28;20431;-87
2023/10/19 06:04:03;;;;;;;7.47;5.90;;;13.40;99.90;;;;;;4984818;28;20219;-86
2023/10/19 06:06:28;;;;;;;8.07;7.28;;;13.40;99.90;;;;;;4987107;28;20189;-87
2023/10/19 06:08:54;;;;;;;6.57;5.97;;;15.20;99.90;;;;;;4981235;28;20492;-87
2023/10/19 06:11:21;;;;;;;7.00;6.40;;;13.60;99.90;;;;;;4983157;28;20688;-87
2023/10/19 06:13:47;;;;;;;7.95;7.25;;;14.40;99.90;;;;;;4982206;28;20688;-87
2023/10/19 06:16:14;;;;;;;7.13;5.60;;;14.50;99.90;;;;;;4987319;28;20279;-87
2023/10/19 06:18:43;;;;;;;10.10;7.07;;;14.40;99.90;;;;;;4981996;28;20271;-88
2023/10/19 06:21:09;;;;;;;17.50;12.10;;;13.90;99.90;;;;;;4984762;28;20331;-86
2023/10/19 06:23:36;;;;;;;16.90;14.35;;;15.20;99.90;;;;;;4980630;28;20647;-87
2023/10/19 06:26:11;;;;;;;16.80;13.80;;;14.00;99.90;;;;;;4983847;28;20644;-86
2023/10/19 06:28:39;;;;;;;18.08;15.35;;;15.20;99.90;;;;;;4978432;28;20216;-86
2023/10/19 06:31:08;;;;;;;24.25;15.40;;;13.80;99.90;;;;;;4983916;28;20207;-87
2023/10/19 06:33:34;;;;;;;19.55;14.95;;;13.90;99.90;;;;;;4985565;28;20688;-87
2023/10/19 06:36:03;;;;;;;17.23;13.97;;;13.90;99.90;;;;;;4988309;28;20238;-87
2023/10/19 06:38:29;;;;;;;17.23;13.77;;;14.80;99.90;;;;;;4984333;28;20284;-88
2023/10/19 06:40:54;;;;;;;16.70;13.60;;;14.40;99.90;;;;;;4969993;28;20247;-86
2023/10/19 06:43:23;;;;;;;20.83;14.70;;;14.50;99.90;;;;;;4981655;28;20211;-87
2023/10/19 06:45:49;;;;;;;25.08;14.95;;;16.20;99.90;;;;;;4981205;28;20200;-86
2023/10/19 06:48:15;;;;;;;22.08;16.00;;;13.70;99.90;;;;;;4985286;28;20187;-86
2023/10/19 06:50:42;;;;;;;25.20;15.47;;;14.00;99.90;;;;;;4988948;28;20219;-87
2023/10/19 06:53:07;;;;;;;25.00;15.02;;;12.10;99.90;;;;;;4987503;28;20215;-87
2023/10/19 06:55:33;;;;;;;19.70;15.80;;;15.10;99.90;;;;;;4983400;28;20187;-87
2023/10/19 06:57:59;;;;;;;18.80;14.87;;;16.50;99.90;;;;;;4978488;28;20180;-88
2023/10/19 07:00:27;;;;;;;25.50;16.65;;;15.90;99.90;;;;;;4982103;28;20184;-87
2023/10/19 07:03:00;;;;;;;20.60;14.65;;;14.30;99.90;;;;;;4986201;28;20203;-87
2023/10/19 07:05:29;;;;;;;21.17;14.80;;;16.20;99.90;;;;;;4982404;28;20245;-86
2023/10/19 07:07:56;;;;;;;19.20;14.70;;;15.70;99.90;;;;;;4984311;28;20307;-87
2023/10/19 07:10:23;;;;;;;21.33;15.20;;;14.30;99.90;;;;;;4980118;28;20211;-87
2023/10/19 07:12:53;;;;;;;22.30;14.70;;;14.50;99.90;;;;;;4980314;28;20243;-87
2023/10/19 07:15:19;;;;;;;20.30;15.50;;;15.80;99.90;;;;;;4982489;28;20177;-87
2023/10/19 07:17:46;;;;;;;23.27;14.40;;;14.30;99.90;;;;;;4984744;28;20189;-87
2023/10/19 07:23:18;;;;;;;15.77;13.70;;;14.30;99.90;;;;;;4972333;28;20228;-86
2023/10/19 07:25:53;;;;;;;20.85;15.32;;;16.10;99.90;;;;;;4983234;28;20559;-87
2023/10/19 07:28:20;;;;;;;18.88;13.93;;;15.00;99.90;;;;;;4982158;28;20191;-87
2023/10/19 07:30:51;;;;;;;17.60;15.35;;;14.50;99.90;;;;;;4974907;28;20216;-87
2023/10/19 07:33:17;;;;;;;22.30;15.07;;;15.20;99.90;;;;;;4985473;28;20200;-87
2023/10/19 07:35:46;;;;;;;19.20;13.90;;;14.40;99.90;;;;;;4988529;28;20663;-86
2023/10/19 07:38:13;;;;;;;20.50;14.65;;;15.60;99.90;;;;;;4980401;28;20443;-87
2023/10/19 07:40:38;;;;;;;24.23;14.70;;;16.70;99.90;;;;;;4985518;28;20187;-87
2023/10/19 07:43:04;;;;;;;21.00;14.63;;;14.30;99.90;;;;;;4987258;28;20257;-89
2023/10/19 07:45:31;;;;;;;18.60;13.43;;;13.40;99.90;;;;;;4986328;28;20254;-88
2023/10/19 07:48:06;;;;;;;22.02;14.82;;;17.00;99.90;;;;;;4992154;28;20206;-88
2023/10/19 07:50:35;;;;;;;18.90;13.50;;;17.80;99.90;;;;;;4989916;28;20203;-88
2023/10/19 07:53:01;;;;;;;17.00;13.00;;;15.20;99.90;;;;;;4989382;28;20242;-88
2023/10/19 07:55:31;;;;;;;17.58;14.10;;;16.20;99.90;;;;;;4987858;28;20232;-88
2023/10/19 07:57:59;;;;;;;15.73;12.85;;;15.80;99.90;;;;;;4986859;28;20641;-88
2023/10/19 08:00:26;;;;;;;25.35;13.68;;;17.90;99.90;;;;;;4994357;28;20250;-88
2023/10/19 08:02:55;;;;;;;15.63;13.13;;;17.50;99.90;;;;;;4988239;28;20207;-88
2023/10/19 08:05:21;;;;;;;19.55;14.50;;;17.50;99.90;;;;;;4982442;28;20275;-88
2023/10/19 08:07:47;;;;;;;15.88;12.43;;;17.40;99.90;;;;;;4981358;28;20727;-88
2023/10/19 08:10:15;;;;;;;17.00;12.27;;;16.50;99.90;;;;;;4984403;28;20216;-88
2023/10/19 08:12:42;;;;;;;19.80;14.57;;;17.40;99.90;;;;;;4985830;28;21621;-88
2023/10/19 08:15:12;;;;;;;16.73;13.30;;;18.00;99.90;;;;;;4987325;28;20190;-88
2023/10/19 08:17:39;;;;;;;15.80;13.75;;;16.40;99.90;;;;;;4985718;28;20237;-87
2023/10/19 08:20:09;;;;;;;15.05;12.98;;;16.40;99.90;;;;;;4982468;28;20200;-87
2023/10/19 08:22:38;;;;;;;19.77;13.45;;;16.20;99.90;;;;;;4984292;28;20632;-88
2023/10/19 08:25:11;;;;;;;17.05;13.00;;;16.00;99.90;;;;;;4987024;28;20184;-88
2023/10/19 08:27:49;;;;;;;17.50;13.50;;;16.00;99.90;;;;;;4984896;28;20243;-87
2023/10/19 08:30:19;;;;;;;15.93;12.85;;;16.20;99.90;;;;;;4985159;28;20199;-87
2023/10/19 08:32:47;;;;;;;16.02;13.30;;;16.80;99.90;;;;;;4984400;28;20227;-87
2023/10/19 08:35:14;;;;;;;13.60;11.95;;;17.20;99.90;;;;;;4984900;28;20187;-87
2023/10/19 08:37:40;;;;;;;19.40;13.07;;;17.80;99.90;;;;;;4980047;28;20491;-88
2023/10/19 08:40:17;;;;;;;15.40;12.70;;;18.80;99.90;;;;;;4983942;28;20272;-88
2023/10/19 08:42:45;;;;;;;19.40;11.88;;;17.00;99.90;;;;;;4983244;28;20465;-87
2023/10/19 08:45:14;;;;;;;13.00;11.20;;;18.70;99.90;;;;;;4983057;28;20199;-87
2023/10/19 08:48:04;;;;;;;15.68;12.13;;;17.10;99.90;;;;;;4989136;28;20203;-86
2023/10/19 08:50:31;;;;;;;14.35;12.65;;;17.10;99.90;;;;;;4984684;28;20219;-86
2023/10/19 08:52:59;;;;;;;15.82;12.50;;;18.40;99.90;;;;;;4994491;28;20219;-86
2023/10/19 08:55:25;;;;;;;12.27;10.60;;;17.70;99.90;;;;;;4995437;28;20262;-86
2023/10/19 08:57:52;;;;;;;13.23;11.70;;;19.80;99.90;;;;;;4980780;28;20274;-86
2023/10/19 09:00:18;;;;;;;13.27;11.38;;;19.10;99.90;;;;;;4986409;28;20180;-87
2023/10/19 09:02:48;;;;;;;11.93;10.73;;;19.00;99.90;;;;;;4986133;28;20219;-87
2023/10/19 09:05:22;;;;;;;13.55;12.15;;;17.60;99.90;;;;;;4983673;28;20188;-87
2023/10/19 09:07:55;;;;;;;13.52;10.85;;;17.50;99.90;;;;;;4999301;28;20187;-87
2023/10/19 09:10:26;;;;;;;12.02;10.35;;;19.30;99.90;;;;;;4981051;28;20241;-87
2023/10/19 09:13:09;;;;;;;10.82;9.30;;;19.10;99.90;;;;;;4995121;28;20356;-88
2023/10/19 09:15:38;;;;;;;10.30;9.05;;;18.00;99.90;;;;;;4982008;28;20184;-87
2023/10/19 09:18:24;;;;;;;13.93;9.10;;;18.60;99.90;;;;;;4983323;28;20324;-86
2023/10/19 09:23:36;;;;;;;11.18;10.02;;;18.80;99.90;;;;;;4986400;28;20266;-85
2023/10/19 09:26:07;;;;;;;13.67;9.77;;;18.90;99.90;;;;;;4988991;28;20192;-85
2023/10/19 09:28:37;;;;;;;10.68;8.50;;;20.40;99.90;;;;;;4981974;28;20638;-85
2023/10/19 09:31:09;;;;;;;9.63;8.68;;;19.40;99.90;;;;;;4983400;28;20277;-86
2023/10/19 09:33:35;;;;;;;9.88;8.93;;;20.70;99.90;;;;;;4994332;28;20243;-86
2023/10/19 09:36:12;;;;;;;13.17;7.10;;;18.70;99.90;;;;;;4979989;28;20188;-85
2023/10/19 09:38:48;;;;;;;5.57;3.88;;;19.10;99.90;;;;;;4983454;28;20188;-83
2023/10/19 09:41:15;;;;;;;3.75;3.08;;;19.40;99.90;;;;;;4986790;28;20282;-84
2023/10/19 09:43:48;;;;;;;3.70;3.40;;;18.90;99.90;;;;;;4985643;28;20207;-84
2023/10/19 09:46:29;;;;;;;3.67;3.35;;;19.60;99.90;;;;;;4989714;28;20606;-84
2023/10/19 09:48:55;;;;;;;4.15;2.88;;;21.00;99.90;;;;;;4985838;28;20183;-85
2023/10/19 09:51:23;;;;;;;3.72;3.25;;;20.10;99.90;;;;;;4986030;28;20296;-85
2023/10/19 09:53:57;;;;;;;4.20;3.47;;;21.70;99.90;;;;;;4989780;28;20211;-84
2023/10/19 09:56:44;;;;;;;4.95;3.20;;;19.50;99.90;;;;;;4986954;28;20240;-85
2023/10/19 09:59:37;;;;;;;4.53;3.20;;;21.20;99.90;;;;;;4984193;28;20184;-83
2023/10/19 10:02:04;;;;;;;4.07;3.70;;;20.00;99.90;;;;;;4980437;28;20187;-85
2023/10/19 10:04:35;;;;;;;3.30;3.00;;;20.20;99.90;;;;;;4986100;28;20202;-84
2023/10/19 10:07:08;;;;;;;4.28;3.97;;;20.90;99.90;;;;;;4984895;28;20196;-84
2023/10/19 10:09:45;;;;;;;4.13;3.45;;;20.00;99.90;;;;;;4983402;28;20222;-85
2023/10/19 10:12:25;;;;;;;3.58;3.28;;;20.70;99.90;;;;;;5000289;28;20696;-84
2023/10/19 10:14:58;;;;;;;3.85;3.55;;;20.50;99.90;;;;;;4997399;28;20198;-83
2023/10/19 10:17:27;;;;;;;3.95;3.65;;;20.30;99.90;;;;;;5002399;28;20315;-84
2023/10/19 10:20:28;;;;;;;4.75;3.90;;;21.50;99.90;;;;;;5002335;28;20187;-84
2023/10/19 10:23:26;;;;;;;4.30;3.90;;;20.40;99.90;;;;;;4998837;28;20206;-84
2023/10/19 10:25:58;;;;;;;4.78;4.38;;;19.70;99.90;;;;;;5010871;28;20191;-84
2023/10/19 10:28:24;;;;;;;5.85;4.53;;;19.70;99.90;;;;;;4992485;28;20275;-84
2023/10/19 10:31:16;;;;;;;5.55;5.05;;;19.70;99.90;;;;;;4993774;28;20207;-84
2023/10/19 10:33:54;;;;;;;4.85;4.45;;;19.70;99.90;;;;;;4998615;28;20200;-83
2023/10/19 10:36:21;;;;;;;5.78;4.45;;;19.50;99.90;;;;;;4995067;28;20315;-84
2023/10/19 10:38:50;;;;;;;5.00;4.50;;;19.40;99.90;;;;;;4991415;28;20236;-84
2023/10/19 10:41:20;;;;;;;4.93;4.53;;;19.70;99.90;;;;;;4993985;28;20503;-84
2023/10/19 10:43:54;;;;;;;4.72;4.28;;;19.50;99.90;;;;;;4986348;28;20267;-84
2023/10/19 10:46:21;;;;;;;6.18;4.85;;;19.10;99.90;;;;;;4983802;28;20723;-84
2023/10/19 10:48:51;;;;;;;5.60;4.38;;;19.30;99.90;;;;;;4983846;28;20192;-84
2023/10/19 10:51:24;;;;;;;5.28;4.50;;;19.00;99.90;;;;;;4983090;28;20209;-85
2023/10/19 10:53:51;;;;;;;5.38;4.40;;;19.00;99.90;;;;;;4981763;28;20203;-85
2023/10/19 10:56:18;;;;;;;5.00;4.60;;;19.40;99.90;;;;;;4984646;28;20194;-85
2023/10/19 10:58:45;;;;;;;5.57;4.97;;;20.20;99.90;;;;;;4987042;28;20192;-86
2023/10/19 11:01:10;;;;;;;5.30;4.80;;;19.10;99.90;;;;;;4994069;28;20191;-85
2023/10/19 11:03:37;;;;;;;5.60;4.50;;;20.50;99.90;;;;;;4984308;28;20632;-86
2023/10/19 11:06:04;;;;;;;5.32;4.72;;;19.40;99.90;;;;;;4986489;28;20184;-85
2023/10/19 11:08:32;;;;;;;4.78;4.10;;;18.90;99.90;;;;;;4986099;28;20210;-86
2023/10/19 11:11:06;;;;;;;5.22;4.72;;;19.70;99.90;;;;;;4990695;28;20334;-85
2023/10/19 11:13:35;;;;;;;4.75;4.32;;;19.30;99.90;;;;;;4986631;28;20233;-85
2023/10/19 11:16:03;;;;;;;5.72;5.00;;;19.00;99.90;;;;;;4988162;28;20196;-85
2023/10/19 11:18:33;;;;;;;4.78;4.35;;;20.40;99.90;;;;;;4990018;28;20199;-85
2023/10/19 11:21:04;;;;;;;6.53;4.15;;;20.20;99.90;;;;;;4987927;28;20183;-85
2023/10/19 11:23:37;;;;;;;5.10;3.92;;;20.60;99.90;;;;;;4985422;28;20298;-85
2023/10/19 11:26:05;;;;;;;3.25;3.05;;;19.30;99.90;;;;;;4989389;28;20214;-85
2023/10/19 11:28:33;;;;;;;3.92;3.63;;;19.00;99.90;;;;;;4993177;28;20195;-85
2023/10/19 11:31:13;;;;;;;3.55;3.17;;;20.20;99.90;;;;;;4999440;28;20688;-84
2023/10/19 11:33:38;;;;;;;3.28;2.95;;;20.60;99.90;;;;;;4981988;28;20215;-86
2023/10/19 11:36:05;;;;;;;3.17;2.87;;;20.60;99.90;;;;;;4988502;28;20179;-85
2023/10/19 11:38:33;;;;;;;6.03;3.30;;;18.90;99.90;;;;;;4989733;28;20219;-85
2023/10/19 11:40:58;;;;;;;2.83;2.63;;;20.60;99.90;;;;;;4986584;28;20617;-85
2023/10/19 11:43:27;;;;;;;3.50;3.20;;;20.20;99.90;;;;;;4990680;28;20311;-84
2023/10/19 11:45:56;;;;;;;3.17;2.70;;;19.00;99.90;;;;;;4989701;28;20706;-85
2023/10/19 11:48:24;;;;;;;5.28;3.60;;;18.50;99.90;;;;;;4974232;28;20234;-84
2023/10/19 11:50:50;;;;;;;3.28;2.60;;;19.70;99.90;;;;;;4985734;28;20242;-84
2023/10/19 11:53:20;;;;;;;4.70;3.10;;;18.50;99.90;;;;;;4979101;28;20234;-84
2023/10/19 11:55:48;;;;;;;5.45;3.15;;;20.50;99.90;;;;;;4987934;28;20184;-85
2023/10/19 11:58:14;;;;;;;3.85;3.20;;;20.20;99.90;;;;;;4988536;28;20192;-85
2023/10/19 12:00:43;;;;;;;7.45;3.88;;;18.70;99.90;;;;;;4986742;28;20183;-85
2023/10/19 12:03:10;;;;;;;4.63;3.30;;;20.20;99.90;;;;;;4985838;28;20273;-85
2023/10/19 12:05:37;;;;;;;5.10;3.70;;;19.10;99.90;;;;;;4983702;28;20563;-84
2023/10/19 12:08:06;;;;;;;4.10;3.50;;;20.30;99.90;;;;;;4986726;28;20664;-85
2023/10/19 12:10:39;;;;;;;4.70;2.70;;;18.50;99.90;;;;;;4986932;28;20219;-84
2023/10/19 12:13:09;;;;;;;4.97;3.80;;;20.90;99.90;;;;;;4981553;28;20291;-85
2023/10/19 12:15:34;;;;;;;4.85;3.20;;;19.70;99.90;;;;;;4987677;28;20190;-85
2023/10/19 12:18:02;;;;;;;4.90;3.93;;;20.10;99.90;;;;;;4998876;28;20192;-86
2023/10/19 12:20:30;;;;;;;4.40;4.00;;;18.80;99.90;;;;;;5002375;28;20196;-85
2023/10/19 12:22:57;;;;;;;6.25;3.00;;;18.50;99.90;;;;;;4977833;28;20204;-85
2023/10/19 12:25:29;;;;;;;4.43;2.22;;;17.80;99.90;;;;;;4985334;28;20191;-85
2023/10/19 12:28:00;;;;;;;3.83;2.85;;;19.80;99.90;;;;;;4986069;28;20197;-85
2023/10/19 12:30:33;;;;;;;7.10;5.85;;;18.80;99.90;;;;;;4991749;28;20289;-85
2023/10/19 12:33:01;;;;;;;4.95;4.55;;;18.10;99.90;;;;;;4985619;28;20199;-85
2023/10/19 12:35:44;;;;;;;5.63;3.60;;;20.20;99.90;;;;;;4985101;28;20680;-85
2023/10/19 12:38:15;;;;;;;7.95;6.40;;;19.50;99.90;;;;;;4985780;28;20444;-85
2023/10/19 12:40:42;;;;;;;5.50;4.15;;;19.50;99.90;;;;;;4989616;28;20191;-85
2023/10/19 12:43:10;;;;;;;6.47;5.93;;;18.80;99.90;;;;;;4986214;28;20714;-86
2023/10/19 12:45:39;;;;;;;4.95;3.83;;;19.90;99.90;;;;;;4987681;28;20202;-85
2023/10/19 12:48:06;;;;;;;4.88;4.20;;;19.80;99.90;;;;;;4987825;28;20180;-86
2023/10/19 12:50:34;;;;;;;8.02;5.25;;;17.70;99.90;;;;;;5003328;28;20277;-86
2023/10/19 12:53:00;;;;;;;8.23;4.13;;;19.30;99.90;;;;;;4988530;28;20286;-85
2023/10/19 12:55:27;;;;;;;5.72;4.72;;;19.10;99.90;;;;;;4988989;28;20184;-85
2023/10/19 12:57:56;;;;;;;5.38;4.57;;;17.50;99.90;;;;;;4997389;28;20190;-85
2023/10/19 13:00:36;;;;;;;8.27;4.30;;;19.60;99.90;;;;;;4986187;28;20226;-85
2023/10/19 13:03:05;;;;;;;6.45;5.85;;;18.70;99.90;;;;;;4985844;28;20214;-85
2023/10/19 13:05:34;;;;;;;4.95;4.03;;;17.60;99.90;;;;;;4986607;28;20605;-86
2023/10/19 13:08:00;;;;;;;6.05;3.78;;;20.10;99.90;;;;;;4984207;28;20222;-84
2023/10/19 13:10:32;;;;;;;4.95;4.20;;;17.90;99.90;;;;;;4987980;28;20227;-86
2023/10/19 13:13:03;;;;;;;5.97;5.05;;;17.40;99.90;;;;;;4987343;28;20694;-86
2023/10/19 13:15:31;;;;;;;5.57;5.07;;;18.00;99.90;;;;;;4987435;28;20314;-85
2023/10/19 13:17:59;;;;;;;7.82;7.13;;;18.00;99.90;;;;;;4986938;28;20215;-85
2023/10/19 13:20:25;;;;;;;10.43;9.32;;;17.70;99.90;;;;;;4984637;28;20226;-86
2023/10/19 13:22:52;;;;;;;6.85;6.28;;;18.20;99.90;;;;;;4986070;28;20222;-86
2023/10/19 13:25:28;;;;;;;7.85;6.18;;;19.80;99.90;;;;;;4984711;28;20345;-86
2023/10/19 13:27:56;;;;;;;6.80;6.10;;;17.30;99.90;;;;;;4984909;28;20180;-84
2023/10/19 13:30:23;;;;;;;7.90;7.10;;;17.30;99.90;;;;;;4969421;28;20211;-86